Time;durP1;ratioP1;P1;durP2;ratioP2;P2;SDS_P1;SDS_P2;PMS_P1;PMS_P2;Temp;Humidity;BMP_temperature;BMP_pressure;BME280_temperature;BME280_humidity;BME280_pressure;Samples;Min_cycle;Max_cycle;Signal;HPM_P1;HPM_P2
2023/09/24 00:02:45;;;;;;;19.77;8.23;;;13.10;99.90;;;;;;4414817;28;660357;-63
2023/09/24 00:05:32;;;;;;;18.60;8.10;;;13.10;99.90;;;;;;4391163;28;659781;-64
2023/09/24 00:08:21;;;;;;;17.40;8.10;;;13.10;99.90;;;;;;4404104;28;660479;-62
2023/09/24 00:11:10;;;;;;;24.03;8.53;;;13.10;99.90;;;;;;4387349;28;659673;-64
2023/09/24 00:13:58;;;;;;;19.30;7.77;;;13.00;99.90;;;;;;4380986;28;659510;-65
2023/09/24 00:16:45;;;;;;;14.73;7.20;;;13.00;99.90;;;;;;4351670;28;659653;-64
2023/09/24 00:19:33;;;;;;;16.00;7.33;;;13.00;99.90;;;;;;4307251;28;660349;-65
2023/09/24 00:22:20;;;;;;;16.93;7.40;;;13.00;99.90;;;;;;4360347;28;659567;-64
2023/09/24 00:25:10;;;;;;;14.57;7.10;;;13.00;99.90;;;;;;4383995;28;659534;-65
2023/09/24 00:27:59;;;;;;;15.73;7.27;;;13.00;99.90;;;;;;4400122;28;659829;-64
2023/09/24 00:30:46;;;;;;;12.40;6.40;;;13.00;99.90;;;;;;4405868;28;659516;-63
2023/09/24 00:33:33;;;;;;;15.90;6.87;;;12.90;99.90;;;;;;4386520;28;660120;-65
2023/09/24 00:36:20;;;;;;;15.10;7.23;;;12.90;99.90;;;;;;4403548;28;661455;-65
2023/09/24 00:39:08;;;;;;;13.10;7.13;;;13.00;99.90;;;;;;4378008;28;660063;-65
2023/09/24 00:41:55;;;;;;;11.77;6.77;;;12.90;99.90;;;;;;4404488;28;661313;-64
2023/09/24 00:44:44;;;;;;;14.93;7.07;;;12.90;99.90;;;;;;4400133;28;660184;-64
2023/09/24 00:47:31;;;;;;;10.07;6.13;;;12.90;99.90;;;;;;4404433;28;660648;-63
2023/09/24 00:50:18;;;;;;;15.27;6.73;;;12.90;99.90;;;;;;4388267;28;659791;-63
2023/09/24 00:53:05;;;;;;;9.80;6.72;;;12.80;99.90;;;;;;4402910;28;660832;-65
2023/09/24 00:55:53;;;;;;;12.93;6.83;;;12.80;99.90;;;;;;4383645;28;658536;-64
2023/09/24 00:58:41;;;;;;;9.90;6.40;;;12.80;99.90;;;;;;4411125;28;660826;-63
2023/09/24 01:01:29;;;;;;;11.23;6.83;;;12.80;99.90;;;;;;4388576;28;658449;-64
2023/09/24 01:04:17;;;;;;;13.70;6.60;;;12.70;99.90;;;;;;4412054;28;660462;-63
2023/09/24 01:07:04;;;;;;;15.80;6.97;;;12.70;99.90;;;;;;4387624;28;660171;-64
2023/09/24 01:09:51;;;;;;;12.27;7.53;;;12.70;99.90;;;;;;4406496;28;659955;-63
2023/09/24 01:12:39;;;;;;;10.67;6.47;;;12.70;99.90;;;;;;4387463;28;659561;-64
2023/09/24 01:15:27;;;;;;;17.80;6.87;;;12.70;99.90;;;;;;4406298;28;660103;-63
2023/09/24 01:18:16;;;;;;;15.40;6.63;;;12.70;99.90;;;;;;4389263;28;660996;-63
2023/09/24 01:21:03;;;;;;;10.90;6.30;;;12.70;99.90;;;;;;4388352;28;660302;-64
2023/09/24 01:23:52;;;;;;;14.40;6.53;;;12.70;99.90;;;;;;4404733;28;660529;-64
2023/09/24 01:26:39;;;;;;;11.37;6.80;;;12.60;99.90;;;;;;4380670;28;661792;-63
2023/09/24 01:29:26;;;;;;;14.07;6.70;;;12.70;99.90;;;;;;4407239;28;659867;-63
2023/09/24 01:32:15;;;;;;;13.13;6.40;;;12.60;99.90;;;;;;4382760;28;659634;-64
2023/09/24 01:35:06;;;;;;;9.67;6.53;;;12.70;99.90;;;;;;4402354;28;659598;-65
2023/09/24 01:37:54;;;;;;;12.13;6.07;;;12.70;99.90;;;;;;4386364;28;659497;-63
2023/09/24 01:40:43;;;;;;;13.63;6.87;;;12.60;99.90;;;;;;4413636;28;660415;-63
2023/09/24 01:43:31;;;;;;;9.47;6.37;;;12.70;99.90;;;;;;4381650;28;661799;-63
2023/09/24 01:46:20;;;;;;;9.83;6.23;;;12.60;99.90;;;;;;4388958;28;658679;-64
2023/09/24 01:49:10;;;;;;;14.60;6.47;;;12.60;99.90;;;;;;4395213;28;658603;-64
2023/09/24 01:51:57;;;;;;;10.63;6.40;;;12.60;99.90;;;;;;4406799;28;659675;-63
2023/09/24 01:54:47;;;;;;;17.03;6.93;;;12.50;99.90;;;;;;4388443;28;661461;-63
2023/09/24 01:57:35;;;;;;;9.30;6.17;;;12.50;99.90;;;;;;4389137;28;660547;-63
2023/09/24 02:00:25;;;;;;;13.50;6.10;;;12.60;99.90;;;;;;4387876;28;658747;-64
2023/09/24 02:03:13;;;;;;;7.93;5.55;;;12.50;99.90;;;;;;4386291;28;659892;-64
2023/09/24 02:06:00;;;;;;;15.30;6.00;;;12.50;99.90;;;;;;4413724;28;659602;-64
2023/09/24 02:08:48;;;;;;;10.13;5.40;;;12.40;99.90;;;;;;4408455;28;659945;-64
2023/09/24 02:11:35;;;;;;;9.53;5.77;;;12.40;99.90;;;;;;4410910;28;659900;-63
2023/09/24 02:14:24;;;;;;;8.93;5.87;;;12.40;99.90;;;;;;4405397;28;659130;-65
2023/09/24 02:17:11;;;;;;;8.23;5.90;;;12.30;99.90;;;;;;4404393;28;658869;-63
2023/09/24 02:19:58;;;;;;;9.37;5.87;;;12.30;99.90;;;;;;4382295;28;658626;-64
2023/09/24 02:22:46;;;;;;;11.13;5.90;;;12.30;99.90;;;;;;4272478;28;659022;-65
2023/09/24 02:25:35;;;;;;;11.80;5.50;;;12.30;99.90;;;;;;4234633;28;659262;-65
2023/09/24 02:28:24;;;;;;;9.97;6.10;;;12.30;99.90;;;;;;4336316;28;660355;-64
2023/09/24 02:31:12;;;;;;;8.20;5.90;;;12.20;99.90;;;;;;4405842;28;659161;-64
2023/09/24 02:33:59;;;;;;;8.57;5.57;;;12.20;99.90;;;;;;4391517;28;659228;-63
2023/09/24 02:36:47;;;;;;;11.60;5.77;;;12.20;99.90;;;;;;4411844;28;659265;-63
2023/09/24 02:39:34;;;;;;;9.70;5.33;;;12.20;99.90;;;;;;4386438;28;660098;-63
2023/09/24 02:42:22;;;;;;;10.17;5.47;;;12.20;99.90;;;;;;4404177;28;658895;-63
2023/09/24 02:45:10;;;;;;;12.50;6.23;;;12.20;99.90;;;;;;4387313;28;659467;-64
2023/09/24 02:47:59;;;;;;;10.83;5.60;;;12.20;99.90;;;;;;4385015;28;659348;-64
2023/09/24 02:50:47;;;;;;;11.50;5.63;;;12.20;99.90;;;;;;4409650;28;660873;-63
2023/09/24 02:53:34;;;;;;;12.23;5.50;;;12.20;99.90;;;;;;4384551;28;660476;-64
2023/09/24 02:56:21;;;;;;;9.53;5.53;;;12.20;99.90;;;;;;4403191;28;659608;-64
2023/09/24 02:59:11;;;;;;;10.80;5.87;;;12.10;99.90;;;;;;4386151;28;658728;-63
2023/09/24 03:01:59;;;;;;;9.90;5.30;;;12.20;99.90;;;;;;4380149;28;659704;-64
2023/09/24 03:04:47;;;;;;;12.63;5.53;;;12.20;99.90;;;;;;4408961;28;658528;-64
2023/09/24 03:07:34;;;;;;;11.07;5.93;;;12.20;99.90;;;;;;4389029;28;660096;-64
2023/09/24 03:10:22;;;;;;;9.90;5.73;;;12.10;99.90;;;;;;4404339;28;660287;-63
2023/09/24 03:13:09;;;;;;;11.40;5.60;;;12.10;99.90;;;;;;4393518;28;659596;-63
2023/09/24 03:15:56;;;;;;;11.27;6.10;;;12.10;99.90;;;;;;4396120;28;660744;-64
2023/09/24 03:18:45;;;;;;;11.87;5.67;;;12.10;99.90;;;;;;4372196;28;659653;-64
2023/09/24 03:21:33;;;;;;;9.10;5.13;;;12.10;99.90;;;;;;4399155;28;660704;-63
2023/09/24 03:24:20;;;;;;;10.53;5.53;;;12.10;99.90;;;;;;4379759;28;659708;-63
2023/09/24 03:27:08;;;;;;;9.43;5.37;;;12.00;99.90;;;;;;4376330;28;659563;-64
2023/09/24 03:29:55;;;;;;;11.90;5.80;;;12.10;99.90;;;;;;4398756;28;660566;-64
2023/09/24 03:32:42;;;;;;;9.97;5.60;;;12.00;99.90;;;;;;4390726;28;659659;-65
2023/09/24 03:35:30;;;;;;;15.97;5.47;;;12.10;99.90;;;;;;4397418;28;659916;-63
2023/09/24 03:38:18;;;;;;;9.80;5.57;;;12.00;99.90;;;;;;4396772;28;659806;-64
2023/09/24 03:41:05;;;;;;;8.30;5.03;;;12.00;99.90;;;;;;4375634;28;662936;-63
2023/09/24 03:43:53;;;;;;;10.80;5.07;;;12.10;99.90;;;;;;4385824;28;658456;-64
2023/09/24 03:46:40;;;;;;;9.30;5.43;;;12.00;99.90;;;;;;4405748;28;661017;-63
2023/09/24 03:49:27;;;;;;;8.20;5.20;;;12.00;99.90;;;;;;4392951;28;658394;-64
2023/09/24 03:52:15;;;;;;;7.57;5.07;;;12.00;99.90;;;;;;4404201;28;658989;-63
2023/09/24 03:55:05;;;;;;;11.97;5.40;;;12.00;99.90;;;;;;4402919;28;659237;-63
2023/09/24 03:57:52;;;;;;;16.80;5.40;;;12.00;99.90;;;;;;4378802;28;659579;-64
2023/09/24 04:00:39;;;;;;;11.80;5.20;;;11.90;99.90;;;;;;4383303;28;660874;-63
2023/09/24 04:03:26;;;;;;;11.47;5.33;;;12.00;99.90;;;;;;4405283;28;660270;-63
2023/09/24 04:06:14;;;;;;;14.97;5.77;;;11.90;99.90;;;;;;4383998;28;659751;-64
2023/09/24 04:09:01;;;;;;;17.43;5.20;;;11.90;99.90;;;;;;4404273;28;660585;-63
2023/09/24 04:11:50;;;;;;;14.87;5.27;;;12.00;99.90;;;;;;4380029;28;659635;-63
2023/09/24 04:14:37;;;;;;;17.48;4.85;;;12.00;99.90;;;;;;4385500;28;660803;-64
2023/09/24 04:17:25;;;;;;;16.87;5.83;;;11.90;99.90;;;;;;4408355;28;660031;-63
2023/09/24 04:20:15;;;;;;;8.40;5.23;;;11.90;99.90;;;;;;4402077;28;659851;-63
2023/09/24 04:23:03;;;;;;;8.93;5.30;;;11.90;99.90;;;;;;4396164;28;658567;-65
2023/09/24 04:25:51;;;;;;;8.70;5.20;;;11.80;99.90;;;;;;4409839;28;660911;-63
2023/09/24 04:28:40;;;;;;;12.43;5.13;;;11.80;99.90;;;;;;4387657;28;658474;-64
2023/09/24 04:31:28;;;;;;;7.38;5.03;;;11.80;99.90;;;;;;4399599;28;659742;-65
2023/09/24 04:34:15;;;;;;;9.67;5.13;;;11.80;99.90;;;;;;4409908;28;659761;-64
2023/09/24 04:37:02;;;;;;;8.50;5.00;;;11.80;99.90;;;;;;4398523;28;658562;-64
2023/09/24 04:39:50;;;;;;;11.57;5.03;;;11.80;99.90;;;;;;4413590;28;660071;-63
2023/09/24 04:42:38;;;;;;;11.00;4.70;;;11.80;99.90;;;;;;4408115;28;661844;-65
2023/09/24 04:45:26;;;;;;;7.77;4.47;;;11.80;99.90;;;;;;4409263;28;661082;-64
2023/09/24 04:48:13;;;;;;;9.50;4.80;;;11.70;99.90;;;;;;4394030;28;659067;-64
2023/09/24 04:51:01;;;;;;;7.67;5.10;;;11.80;99.90;;;;;;4407067;28;658999;-63
2023/09/24 04:53:48;;;;;;;6.67;4.70;;;11.80;99.90;;;;;;4391184;28;658816;-63
2023/09/24 04:56:35;;;;;;;7.77;4.50;;;11.80;99.90;;;;;;4414077;28;658660;-63
2023/09/24 04:59:22;;;;;;;8.45;4.82;;;11.80;99.90;;;;;;4395603;28;659068;-65
2023/09/24 05:02:11;;;;;;;7.37;4.70;;;11.80;99.90;;;;;;4406353;28;660258;-63
2023/09/24 05:04:59;;;;;;;9.57;4.57;;;11.70;99.90;;;;;;4391116;28;659463;-64
2023/09/24 05:07:46;;;;;;;10.80;5.00;;;11.70;99.90;;;;;;4404698;28;658566;-63
2023/09/24 05:10:34;;;;;;;9.03;5.43;;;11.60;99.90;;;;;;4389077;28;659672;-64
2023/09/24 05:13:21;;;;;;;9.73;5.33;;;11.60;99.90;;;;;;4406332;28;659568;-64
2023/09/24 05:16:09;;;;;;;9.97;5.00;;;11.70;99.90;;;;;;4395620;28;658629;-64
2023/09/24 05:19:01;;;;;;;8.13;5.00;;;11.70;99.90;;;;;;4403659;28;659678;-64
2023/09/24 05:21:49;;;;;;;9.47;5.13;;;11.70;99.90;;;;;;4368785;28;658476;-63
2023/09/24 05:24:36;;;;;;;7.07;5.10;;;11.60;99.90;;;;;;4416193;28;658795;-62
2023/09/24 05:27:26;;;;;;;10.40;5.03;;;11.70;99.90;;;;;;4399123;28;658653;-63
2023/09/24 05:30:13;;;;;;;8.30;4.83;;;11.80;99.90;;;;;;4387564;28;659732;-64
2023/09/24 05:33:00;;;;;;;8.17;4.77;;;11.90;99.90;;;;;;4406041;28;659834;-63
2023/09/24 05:35:52;;;;;;;8.20;5.07;;;11.80;99.90;;;;;;4390873;28;659574;-64
2023/09/24 05:38:39;;;;;;;8.80;4.80;;;11.90;99.90;;;;;;4392222;28;661002;-63
2023/09/24 05:41:27;;;;;;;8.00;4.67;;;12.00;99.90;;;;;;4407999;28;659252;-63
2023/09/24 05:44:16;;;;;;;6.90;4.87;;;12.10;99.90;;;;;;4388437;28;659265;-64
2023/09/24 05:47:06;;;;;;;11.40;4.40;;;12.10;99.90;;;;;;4389168;28;658442;-63
2023/09/24 05:49:54;;;;;;;8.83;4.60;;;12.20;99.90;;;;;;4381883;28;659786;-64
2023/09/24 05:52:43;;;;;;;9.47;5.03;;;12.10;99.90;;;;;;4410846;28;659271;-63
2023/09/24 05:55:31;;;;;;;6.93;5.30;;;12.10;99.90;;;;;;4380936;28;660372;-63
2023/09/24 05:58:18;;;;;;;7.07;5.20;;;12.20;99.90;;;;;;4388031;28;659500;-64
2023/09/24 06:01:05;;;;;;;6.83;4.70;;;12.20;99.90;;;;;;4385924;28;659883;-70
2023/09/24 06:03:53;;;;;;;7.93;5.07;;;12.20;99.90;;;;;;4293157;28;658638;-71
2023/09/24 06:06:41;;;;;;;11.63;5.47;;;12.20;99.90;;;;;;4240759;28;658729;-70
2023/09/24 06:09:30;;;;;;;8.27;5.17;;;12.30;99.90;;;;;;4276163;28;660014;-71
2023/09/24 06:12:18;;;;;;;9.20;5.27;;;12.30;99.90;;;;;;4388263;28;659202;-71
2023/09/24 06:15:07;;;;;;;7.77;5.27;;;12.20;99.90;;;;;;4402430;28;660077;-72
2023/09/24 06:17:54;;;;;;;10.43;5.22;;;12.30;99.90;;;;;;4305320;28;658443;-72
2023/09/24 06:20:43;;;;;;;8.83;5.70;;;12.40;99.90;;;;;;4404479;28;660036;-71
2023/09/24 06:23:30;;;;;;;9.70;5.33;;;12.50;99.90;;;;;;4380956;28;659686;-71
2023/09/24 06:26:20;;;;;;;7.15;5.30;;;12.60;99.90;;;;;;4394312;28;658544;-71
2023/09/24 06:29:08;;;;;;;8.50;5.53;;;12.60;99.90;;;;;;4392965;28;658726;-70
2023/09/24 06:31:56;;;;;;;12.50;5.13;;;12.70;99.90;;;;;;4406361;28;658385;-70
2023/09/24 06:34:43;;;;;;;7.70;5.17;;;12.70;99.90;;;;;;4384529;28;659502;-72
2023/09/24 06:37:30;;;;;;;8.33;5.30;;;12.80;99.90;;;;;;4412682;28;659085;-72
2023/09/24 06:40:18;;;;;;;9.90;4.97;;;12.80;99.90;;;;;;4394216;28;658721;-71
2023/09/24 06:43:06;;;;;;;7.80;4.87;;;12.80;99.90;;;;;;4392273;28;660656;-71
2023/09/24 06:45:54;;;;;;;5.87;4.30;;;12.90;99.90;;;;;;4322326;28;658516;-71
2023/09/24 06:48:42;;;;;;;6.87;4.40;;;12.90;99.90;;;;;;4404696;28;659129;-69
2023/09/24 06:51:29;;;;;;;7.93;4.50;;;12.90;99.90;;;;;;4395414;28;658443;-69
2023/09/24 06:54:16;;;;;;;7.07;4.90;;;13.00;99.90;;;;;;4410309;28;658844;-69
2023/09/24 06:57:04;;;;;;;8.10;4.57;;;12.90;99.90;;;;;;4390856;28;659537;-70
2023/09/24 06:59:53;;;;;;;8.80;4.40;;;12.90;99.90;;;;;;4405192;28;659053;-70
2023/09/24 07:02:41;;;;;;;5.90;4.53;;;13.00;99.90;;;;;;4390591;28;659165;-70
2023/09/24 07:05:28;;;;;;;10.50;5.10;;;12.90;99.90;;;;;;4386244;28;659589;-69
2023/09/24 07:08:16;;;;;;;7.97;4.40;;;13.00;99.90;;;;;;4406784;28;660111;-69
2023/09/24 07:11:23;;;;;;;7.20;4.30;;;13.10;99.90;;;;;;4383157;28;658577;-68
2023/09/24 07:14:10;;;;;;;5.80;4.07;;;13.20;99.90;;;;;;4383836;28;659006;-68
2023/09/24 07:16:59;;;;;;;7.17;4.80;;;13.20;99.90;;;;;;4385028;28;658726;-69
2023/09/24 07:19:47;;;;;;;8.30;4.50;;;13.30;99.90;;;;;;4409910;28;659385;-69
2023/09/24 07:22:34;;;;;;;10.47;4.70;;;13.40;99.90;;;;;;4379555;28;659806;-69
2023/09/24 07:25:21;;;;;;;10.30;4.00;;;13.50;99.90;;;;;;4403338;28;660027;-69
2023/09/24 07:28:08;;;;;;;6.45;4.70;;;13.50;99.90;;;;;;4390260;28;659264;-69
2023/09/24 07:30:56;;;;;;;7.77;3.90;;;13.60;99.90;;;;;;4412581;28;660278;-70
2023/09/24 07:33:44;;;;;;;7.83;4.13;;;13.70;99.90;;;;;;4389339;28;659070;-69
2023/09/24 07:36:32;;;;;;;6.17;4.03;;;13.70;99.90;;;;;;4413941;28;659087;-69
2023/09/24 07:39:19;;;;;;;7.33;4.10;;;13.90;99.90;;;;;;4377715;28;659832;-69
2023/09/24 07:42:07;;;;;;;7.87;4.33;;;13.90;99.90;;;;;;4313081;28;658863;-71
2023/09/24 07:44:54;;;;;;;5.97;3.80;;;13.90;99.90;;;;;;4212286;28;658970;-71
2023/09/24 07:47:41;;;;;;;4.77;3.70;;;14.00;99.90;;;;;;4410894;28;658019;-70
2023/09/24 07:50:30;;;;;;;4.83;3.57;;;14.10;99.90;;;;;;4388062;28;658698;-70
2023/09/24 07:53:17;;;;;;;10.27;3.93;;;14.00;99.90;;;;;;4392627;28;658646;-70
2023/09/24 07:56:07;;;;;;;6.80;3.60;;;14.00;99.90;;;;;;4406352;28;660662;-70
2023/09/24 07:58:56;;;;;;;4.43;3.30;;;13.90;99.90;;;;;;4383850;28;659837;-70
2023/09/24 08:01:43;;;;;;;5.53;3.47;;;14.00;99.90;;;;;;4385311;28;658911;-69
2023/09/24 08:04:31;;;;;;;5.80;3.50;;;14.00;99.90;;;;;;4407045;28;658825;-70
2023/09/24 08:07:19;;;;;;;8.60;3.47;;;14.00;99.90;;;;;;4386460;28;659460;-70
2023/09/24 08:10:07;;;;;;;4.97;3.50;;;14.00;99.90;;;;;;4407876;28;658887;-70
2023/09/24 08:12:55;;;;;;;7.87;3.20;;;14.10;99.90;;;;;;4389888;28;660199;-70
2023/09/24 08:15:42;;;;;;;6.87;3.77;;;14.10;99.90;;;;;;4385236;28;659049;-70
2023/09/24 08:18:30;;;;;;;4.97;3.67;;;14.20;99.90;;;;;;4403717;28;659509;-70
2023/09/24 08:21:18;;;;;;;4.40;3.20;;;14.30;99.90;;;;;;4407790;28;658554;-71
2023/09/24 08:24:08;;;;;;;4.27;3.30;;;14.10;99.90;;;;;;4407632;28;659606;-71
2023/09/24 08:26:55;;;;;;;6.03;3.40;;;14.10;99.90;;;;;;4396731;28;660376;-71
2023/09/24 08:29:43;;;;;;;3.93;3.10;;;14.10;99.90;;;;;;4393799;28;661041;-70
2023/09/24 08:32:30;;;;;;;4.93;3.27;;;14.10;99.90;;;;;;4411456;28;660561;-70
2023/09/24 08:35:18;;;;;;;5.17;3.60;;;14.20;99.90;;;;;;4389357;28;658368;-70
2023/09/24 08:38:05;;;;;;;5.33;3.60;;;14.20;99.90;;;;;;4402467;28;659930;-70
2023/09/24 08:40:54;;;;;;;4.53;3.50;;;14.20;99.90;;;;;;4390449;28;658697;-70
2023/09/24 08:43:42;;;;;;;4.43;3.63;;;14.30;99.90;;;;;;4401659;28;658404;-69
2023/09/24 08:46:30;;;;;;;4.17;3.40;;;14.40;99.90;;;;;;4383109;28;659579;-70
2023/09/24 08:49:17;;;;;;;5.17;3.87;;;14.40;99.90;;;;;;4395144;28;658699;-70
2023/09/24 08:52:04;;;;;;;4.60;3.87;;;14.40;99.90;;;;;;4381363;28;659476;-64
2023/09/24 08:54:52;;;;;;;7.10;3.57;;;14.40;99.90;;;;;;4399316;28;659014;-64
2023/09/24 08:57:41;;;;;;;7.30;3.60;;;14.40;99.90;;;;;;4381908;28;659082;-64
2023/09/24 09:00:28;;;;;;;7.63;3.90;;;14.50;99.90;;;;;;4259132;28;658937;-66
2023/09/24 09:03:15;;;;;;;4.70;3.43;;;14.50;99.90;;;;;;4229248;28;658052;-66
2023/09/24 09:06:03;;;;;;;8.33;3.97;;;14.60;99.90;;;;;;4387871;28;658526;-65
2023/09/24 09:08:51;;;;;;;5.40;3.73;;;14.60;99.90;;;;;;4407931;28;659246;-65
2023/09/24 09:11:39;;;;;;;8.57;3.73;;;14.70;99.90;;;;;;4387049;28;658470;-65
2023/09/24 09:14:37;;;;;;;8.20;4.43;;;14.70;99.90;;;;;;4400809;28;658553;-65
2023/09/24 09:17:25;;;;;;;6.27;4.63;;;14.40;99.90;;;;;;4362004;28;659508;-64
2023/09/24 09:20:13;;;;;;;8.87;4.90;;;14.50;99.90;;;;;;4389008;28;658777;-64
2023/09/24 09:23:00;;;;;;;7.10;4.47;;;14.50;99.90;;;;;;4406576;28;659902;-64
2023/09/24 09:25:49;;;;;;;5.53;3.57;;;14.70;99.90;;;;;;4397900;28;659087;-65
2023/09/24 09:28:37;;;;;;;8.83;4.17;;;14.80;99.90;;;;;;4410104;28;659022;-63
2023/09/24 09:31:25;;;;;;;8.87;4.30;;;14.90;99.90;;;;;;4393100;28;659278;-65
2023/09/24 09:34:13;;;;;;;4.50;3.97;;;14.90;99.90;;;;;;4392553;28;659071;-64
2023/09/24 09:37:15;;;;;;;5.43;4.30;;;14.80;99.90;;;;;;4406076;28;660775;-63
2023/09/24 09:40:03;;;;;;;6.57;4.17;;;15.00;99.90;;;;;;4372737;28;659164;-64
2023/09/24 09:42:51;;;;;;;6.23;4.87;;;14.80;99.90;;;;;;4407698;28;659932;-63
2023/09/24 09:45:38;;;;;;;10.00;4.57;;;15.00;99.90;;;;;;4388876;28;658662;-64
2023/09/24 09:48:32;;;;;;;6.73;4.27;;;15.20;99.90;;;;;;4400702;28;662053;-63
2023/09/24 09:51:20;;;;;;;5.67;4.10;;;15.30;99.90;;;;;;4394427;28;659102;-65
2023/09/24 09:54:07;;;;;;;5.80;4.10;;;15.40;99.90;;;;;;4389981;28;659367;-64
2023/09/24 09:56:55;;;;;;;9.33;4.27;;;15.50;99.90;;;;;;4412576;28;659546;-62
2023/09/24 09:59:42;;;;;;;5.60;4.30;;;15.40;99.90;;;;;;4407761;28;658890;-63
2023/09/24 10:02:30;;;;;;;6.03;4.10;;;15.20;99.90;;;;;;4408277;28;660446;-63
2023/09/24 10:05:19;;;;;;;5.10;4.27;;;15.40;99.90;;;;;;4402192;28;658535;-64
2023/09/24 10:08:37;;;;;;;6.87;4.10;;;15.50;99.90;;;;;;4406068;28;659714;-62
2023/09/24 10:11:52;;;;;;;4.87;4.03;;;15.50;99.90;;;;;;4368441;28;659939;-62
2023/09/24 10:14:42;;;;;;;6.17;3.63;;;15.60;99.90;;;;;;4392565;28;658656;-62
2023/09/24 10:17:29;;;;;;;5.17;3.40;;;15.70;99.90;;;;;;4383331;28;659833;-62
2023/09/24 10:20:18;;;;;;;5.13;3.40;;;15.70;99.90;;;;;;4407658;28;658923;-63
2023/09/24 10:23:34;;;;;;;4.47;3.43;;;15.80;99.90;;;;;;4382970;28;659147;-64
2023/09/24 10:26:48;;;;;;;5.07;3.30;;;16.00;99.90;;;;;;4389397;28;658692;-62
2023/09/24 10:30:07;;;;;;;5.27;3.17;;;16.30;99.90;;;;;;4380897;28;658795;-62
2023/09/24 10:32:54;;;;;;;5.70;3.30;;;16.60;99.90;;;;;;4360143;28;659853;-62
2023/09/24 10:35:42;;;;;;;6.37;3.10;;;16.90;99.90;;;;;;4406960;28;658440;-62
2023/09/24 10:38:29;;;;;;;4.13;2.80;;;17.10;99.90;;;;;;4386368;28;658959;-63
2023/09/24 10:41:17;;;;;;;4.77;2.70;;;17.40;99.90;;;;;;4405521;28;658892;-63
2023/09/24 10:44:24;;;;;;;4.00;2.70;;;17.60;99.90;;;;;;4387490;28;659290;-63
2023/09/24 10:47:25;;;;;;;4.13;2.90;;;18.00;99.90;;;;;;4383323;28;658687;-65
2023/09/24 10:50:13;;;;;;;3.47;2.60;;;18.00;99.90;;;;;;4407508;28;659301;-64
2023/09/24 10:53:02;;;;;;;4.13;2.50;;;17.80;99.90;;;;;;4400589;28;659309;-63
2023/09/24 10:55:49;;;;;;;4.60;2.80;;;17.60;99.90;;;;;;4382661;28;659189;-65
2023/09/24 10:58:37;;;;;;;6.63;2.87;;;17.50;99.90;;;;;;4232179;28;658858;-65
2023/09/24 11:01:30;;;;;;;3.33;2.40;;;17.30;99.90;;;;;;4230415;28;659512;-65
2023/09/24 11:04:25;;;;;;;3.33;2.50;;;17.40;99.90;;;;;;4296309;28;659362;-64
2023/09/24 11:07:13;;;;;;;4.37;2.40;;;17.30;99.90;;;;;;4365382;28;658807;-65
2023/09/24 11:10:00;;;;;;;4.17;2.30;;;17.40;99.90;;;;;;4404656;28;659807;-63
2023/09/24 11:12:49;;;;;;;4.23;2.40;;;17.50;99.90;;;;;;4396834;28;659617;-64
2023/09/24 11:15:38;;;;;;;5.47;2.37;;;17.40;99.90;;;;;;4406487;28;657401;-62
2023/09/24 11:18:28;;;;;;;5.43;2.53;;;17.30;99.90;;;;;;4388136;28;659294;-62
2023/09/24 11:21:16;;;;;;;3.57;2.23;;;17.30;99.90;;;;;;4388352;28;658941;-61
2023/09/24 11:24:18;;;;;;;3.70;2.50;;;17.30;99.90;;;;;;4386274;28;659988;-63
2023/09/24 11:27:07;;;;;;;3.77;2.40;;;17.20;99.90;;;;;;4383883;28;659271;-62
2023/09/24 11:29:58;;;;;;;2.37;1.90;;;17.20;99.90;;;;;;4390124;28;659297;-62
2023/09/24 11:32:47;;;;;;;2.27;2.00;;;17.10;99.90;;;;;;4380793;28;660247;-62
2023/09/24 11:35:37;;;;;;;2.53;2.10;;;17.10;99.90;;;;;;4385695;28;658749;-63
2023/09/24 11:38:29;;;;;;;3.63;2.10;;;17.00;99.90;;;;;;4379156;28;659424;-61
2023/09/24 11:41:17;;;;;;;3.20;2.03;;;17.00;99.90;;;;;;4383885;28;658956;-62
2023/09/24 11:44:05;;;;;;;4.10;2.23;;;16.90;99.90;;;;;;4385597;28;659479;-62
2023/09/24 11:46:53;;;;;;;3.60;2.00;;;17.00;99.90;;;;;;4385575;28;658727;-63
2023/09/24 11:49:42;;;;;;;2.20;1.97;;;16.90;99.90;;;;;;4403045;28;659463;-62
2023/09/24 11:52:29;;;;;;;2.03;1.87;;;16.90;99.90;;;;;;4382069;28;658406;-62
2023/09/24 11:55:17;;;;;;;2.80;2.00;;;17.00;99.90;;;;;;4407914;28;659454;-62
2023/09/24 11:58:05;;;;;;;2.07;1.87;;;17.30;99.90;;;;;;4391917;28;658648;-62
2023/09/24 12:00:53;;;;;;;1.90;1.80;;;17.40;99.90;;;;;;4394856;28;658856;-64
2023/09/24 12:03:42;;;;;;;2.73;2.00;;;17.60;99.90;;;;;;4406444;28;659801;-63
2023/09/24 12:06:31;;;;;;;2.33;1.90;;;17.60;99.90;;;;;;4385822;28;659198;-61
2023/09/24 12:09:18;;;;;;;2.70;2.10;;;17.80;99.90;;;;;;4386254;28;658885;-63
2023/09/24 12:12:06;;;;;;;2.27;1.87;;;18.00;99.90;;;;;;4411990;28;660728;-61
2023/09/24 12:14:53;;;;;;;2.33;1.93;;;18.20;99.90;;;;;;4391756;28;659013;-63
2023/09/24 12:17:41;;;;;;;5.70;2.10;;;18.40;99.90;;;;;;4412690;28;659627;-62
2023/09/24 12:20:28;;;;;;;2.13;1.60;;;18.40;99.90;;;;;;4390384;28;659195;-64
2023/09/24 12:23:16;;;;;;;7.13;2.00;;;18.30;99.90;;;;;;4409976;28;659881;-63
2023/09/24 12:26:04;;;;;;;4.63;1.80;;;18.30;99.90;;;;;;4388173;28;658358;-63
2023/09/24 12:28:51;;;;;;;2.63;1.70;;;18.30;99.90;;;;;;4408055;28;658469;-63
2023/09/24 12:31:38;;;;;;;2.30;1.90;;;18.20;99.90;;;;;;4388934;28;658480;-64
2023/09/24 12:34:26;;;;;;;2.47;1.60;;;18.10;99.90;;;;;;4407838;28;659723;-65
2023/09/24 12:37:13;;;;;;;2.00;1.80;;;18.40;99.90;;;;;;4387449;28;659080;-64
2023/09/24 12:40:06;;;;;;;3.00;1.73;;;18.60;99.90;;;;;;4414251;28;659173;-64
2023/09/24 12:42:53;;;;;;;3.83;1.67;;;18.70;99.90;;;;;;4390520;28;659025;-65
2023/09/24 12:45:42;;;;;;;2.57;1.40;;;18.70;99.90;;;;;;4406395;28;659143;-64
2023/09/24 12:48:31;;;;;;;3.47;1.63;;;18.70;99.90;;;;;;4385246;28;658867;-63
2023/09/24 12:51:18;;;;;;;2.47;1.63;;;18.80;99.90;;;;;;4383561;28;658872;-65
2023/09/24 12:54:06;;;;;;;4.13;1.50;;;18.70;99.90;;;;;;4407989;28;659687;-64
2023/09/24 12:56:55;;;;;;;2.40;1.77;;;18.40;99.90;;;;;;4390835;28;658611;-62
2023/09/24 12:59:42;;;;;;;2.47;1.60;;;18.30;99.90;;;;;;4411332;28;659742;-65
2023/09/24 13:02:30;;;;;;;2.57;1.70;;;18.30;99.90;;;;;;4412991;28;658621;-64
2023/09/24 13:05:18;;;;;;;3.27;2.40;;;18.10;99.90;;;;;;4405152;28;658990;-64
2023/09/24 13:08:05;;;;;;;3.27;2.73;;;18.00;99.90;;;;;;4409428;28;659787;-63
2023/09/24 13:10:53;;;;;;;2.63;2.10;;;17.90;99.90;;;;;;4392464;28;658603;-64
2023/09/24 13:13:41;;;;;;;4.67;2.90;;;17.80;99.90;;;;;;4413088;28;660210;-63
2023/09/24 13:16:29;;;;;;;2.43;2.00;;;17.60;99.90;;;;;;4393564;28;658250;-63
2023/09/24 13:19:16;;;;;;;2.37;2.03;;;17.60;99.90;;;;;;4406955;28;660968;-63
2023/09/24 13:22:03;;;;;;;2.57;2.20;;;17.40;99.90;;;;;;4396292;28;658583;-64
2023/09/24 13:24:52;;;;;;;2.30;2.10;;;17.30;99.90;;;;;;4405083;28;659693;-63
2023/09/24 13:27:40;;;;;;;2.97;2.13;;;17.20;99.90;;;;;;4389644;28;659165;-63
2023/09/24 13:30:30;;;;;;;1.83;1.70;;;17.00;99.90;;;;;;4412169;28;658551;-62
2023/09/24 13:33:17;;;;;;;2.00;1.50;;;17.00;99.90;;;;;;4370149;28;659198;-64
2023/09/24 13:36:05;;;;;;;4.00;1.67;;;16.70;99.90;;;;;;4413833;28;659221;-63
2023/09/24 13:38:52;;;;;;;3.40;1.97;;;16.80;99.90;;;;;;4397096;28;658704;-65
2023/09/24 13:41:40;;;;;;;4.43;3.20;;;16.70;99.90;;;;;;4412287;28;659585;-64
2023/09/24 13:44:27;;;;;;;4.93;3.27;;;16.70;99.90;;;;;;4403528;28;658739;-65
2023/09/24 13:47:16;;;;;;;4.37;3.20;;;16.60;99.90;;;;;;4414122;28;659372;-64
2023/09/24 13:50:04;;;;;;;5.20;3.00;;;16.70;99.90;;;;;;4391654;28;659091;-65
2023/09/24 13:52:51;;;;;;;4.17;2.00;;;16.70;99.90;;;;;;4416555;28;658769;-64
2023/09/24 13:55:39;;;;;;;3.37;2.00;;;16.70;99.90;;;;;;4389909;28;659360;-63
2023/09/24 13:58:26;;;;;;;3.37;1.70;;;16.70;99.90;;;;;;4410604;28;658845;-64
2023/09/24 14:01:14;;;;;;;5.10;1.80;;;16.60;99.90;;;;;;4391521;28;658803;-64
2023/09/24 14:04:02;;;;;;;4.27;1.63;;;16.60;99.90;;;;;;4409983;28;659355;-63
2023/09/24 14:06:51;;;;;;;2.37;1.70;;;16.60;99.90;;;;;;4388708;28;659629;-64
2023/09/24 14:12:43;;;;;;;2.37;1.50;;;16.60;99.90;;;;;;4363155;28;659542;-65
2023/09/24 14:15:31;;;;;;;4.87;1.70;;;16.60;99.90;;;;;;4405042;28;659255;-63
2023/09/24 14:18:18;;;;;;;2.55;1.65;;;16.60;99.90;;;;;;4383570;28;658787;-64
2023/09/24 14:21:10;;;;;;;2.40;1.50;;;16.60;99.90;;;;;;4405975;28;659594;-65
2023/09/24 14:23:57;;;;;;;2.30;1.83;;;16.50;99.90;;;;;;4390067;28;658799;-65
2023/09/24 14:26:45;;;;;;;3.40;1.60;;;16.50;99.90;;;;;;4410969;28;660276;-64